Auburn, West Virginia
Current Conditions -  °F | °C
As of 8:15 PM on Friday 31 Oct 2014 (Local Time) from KW22 Reporting Station
Light Rain Light Rain  
Wind Chill: 39°   Ceiling: 1700
Heat Index: 39°   Visibility: 5mi
Dew Point: 39°   Wind: 0mph
Humidity: 100%   Direction: NA
Pressure: 29.86"   Gusts: NA
Location:  39.1°N, 80.86°W
Report Text: KW22 010015Z AUTO 00000KT 5SM -RA FEW008 OVC017 04/04 A2986 RMK AO2
Loading
Personal Weather Stations






























Interactive Weather Map
Tropical Storm Tracking
New forecast layout! Learn more

10-Day Weather Forecast

Advertisements
Track Severe Weather on mobile